sensor_id;sensor_type;location;lat;lon;timestamp;pressure;altitude;pressure_sealevel;temperature;humidity
62548;BME280;48602;45.192;5.722;2023-02-22T00:01:15;99261.34;;;8.99;75.86
62548;BME280;48602;45.192;5.722;2023-02-22T00:03:49;99268.47;;;8.96;75.90
62548;BME280;48602;45.192;5.722;2023-02-22T00:06:18;99261.66;;;8.89;75.73
62548;BME280;48602;45.192;5.722;2023-02-22T00:08:46;99268.84;;;8.84;76.40
62548;BME280;48602;45.192;5.722;2023-02-22T00:11:12;99262.09;;;8.75;76.60
62548;BME280;48602;45.192;5.722;2023-02-22T00:13:39;99261.41;;;8.70;76.86
62548;BME280;48602;45.192;5.722;2023-02-22T00:16:08;99268.53;;;8.65;76.68
62548;BME280;48602;45.192;5.722;2023-02-22T00:18:37;99263.34;;;8.63;76.59
62548;BME280;48602;45.192;5.722;2023-02-22T00:21:03;99265.09;;;8.63;76.69
62548;BME280;48602;45.192;5.722;2023-02-22T00:23:30;99268.53;;;8.65;76.87
62548;BME280;48602;45.192;5.722;2023-02-22T00:25:57;99280.91;;;8.61;76.91
62548;BME280;48602;45.192;5.722;2023-02-22T00:28:23;99272.34;;;8.55;76.79
62548;BME280;48602;45.192;5.722;2023-02-22T00:30:50;99277.72;;;8.52;76.80
62548;BME280;48602;45.192;5.722;2023-02-22T00:33:16;99272.59;;;8.47;76.58
62548;BME280;48602;45.192;5.722;2023-02-22T00:35:43;99276.22;;;8.42;76.56
62548;BME280;48602;45.192;5.722;2023-02-22T00:38:10;99278.06;;;8.38;76.46
62548;BME280;48602;45.192;5.722;2023-02-22T00:40:37;99278.28;;;8.32;76.39
62548;BME280;48602;45.192;5.722;2023-02-22T00:43:03;99273.16;;;8.26;77.08
62548;BME280;48602;45.192;5.722;2023-02-22T00:45:31;99267.13;;;8.22;77.56
62548;BME280;48602;45.192;5.722;2023-02-22T00:47:57;99275.06;;;8.21;77.57
62548;BME280;48602;45.192;5.722;2023-02-22T00:50:25;99277.78;;;8.18;78.13
62548;BME280;48602;45.192;5.722;2023-02-22T00:52:52;99267.38;;;8.13;78.23
62548;BME280;48602;45.192;5.722;2023-02-22T00:55:21;99271.00;;;8.09;78.15
62548;BME280;48602;45.192;5.722;2023-02-22T00:57:47;99268.44;;;8.06;78.01
62548;BME280;48602;45.192;5.722;2023-02-22T01:00:23;99271.97;;;8.05;78.20
62548;BME280;48602;45.192;5.722;2023-02-22T01:02:50;99265.13;;;8.01;78.19
62548;BME280;48602;45.192;5.722;2023-02-22T01:05:17;99273.00;;;8.01;77.93
62548;BME280;48602;45.192;5.722;2023-02-22T01:07:43;99268.72;;;7.97;78.03
62548;BME280;48602;45.192;5.722;2023-02-22T01:10:11;99272.25;;;7.96;77.97
62548;BME280;48602;45.192;5.722;2023-02-22T01:12:36;99270.53;;;7.95;78.14
62548;BME280;48602;45.192;5.722;2023-02-22T01:15:05;99265.31;;;7.93;78.02
62548;BME280;48602;45.192;5.722;2023-02-22T01:17:35;99270.47;;;7.96;78.20
62548;BME280;48602;45.192;5.722;2023-02-22T01:20:00;99274.00;;;7.95;78.51
62548;BME280;48602;45.192;5.722;2023-02-22T01:22:26;99271.34;;;7.97;78.85
62548;BME280;48602;45.192;5.722;2023-02-22T01:24:52;99264.25;;;8.00;78.70
62548;BME280;48602;45.192;5.722;2023-02-22T01:27:19;99255.50;;;8.00;78.73
62548;BME280;48602;45.192;5.722;2023-02-22T01:29:47;99259.00;;;8.00;79.43
62548;BME280;48602;45.192;5.722;2023-02-22T01:32:13;99259.88;;;8.01;79.29
62548;BME280;48602;45.192;5.722;2023-02-22T01:34:38;99259.88;;;8.01;78.99
62548;BME280;48602;45.192;5.722;2023-02-22T01:37:04;99254.63;;;8.01;79.36
62548;BME280;48602;45.192;5.722;2023-02-22T01:39:31;99262.34;;;8.05;79.59
62548;BME280;48602;45.192;5.722;2023-02-22T01:41:56;99265.78;;;8.07;79.39
62548;BME280;48602;45.192;5.722;2023-02-22T01:44:27;99263.16;;;8.07;79.31
62548;BME280;48602;45.192;5.722;2023-02-22T01:46:58;99263.19;;;8.06;79.59
62548;BME280;48602;45.192;5.722;2023-02-22T01:49:27;99259.72;;;8.05;79.43
62548;BME280;48602;45.192;5.722;2023-02-22T01:51:56;99254.66;;;7.99;78.93
62548;BME280;48602;45.192;5.722;2023-02-22T01:54:28;99257.34;;;7.96;79.01
62548;BME280;48602;45.192;5.722;2023-02-22T01:57:04;99249.59;;;7.92;79.59
62548;BME280;48602;45.192;5.722;2023-02-22T01:59:35;99257.50;;;7.90;79.63
62548;BME280;48602;45.192;5.722;2023-02-22T02:02:02;99251.59;;;7.84;79.87
62548;BME280;48602;45.192;5.722;2023-02-22T02:04:30;99250.88;;;7.77;79.44
62548;BME280;48602;45.192;5.722;2023-02-22T02:06:59;99248.28;;;7.76;79.95
62548;BME280;48602;45.192;5.722;2023-02-22T02:10:02;99254.50;;;7.71;80.18
62548;BME280;48602;45.192;5.722;2023-02-22T02:12:30;99251.97;;;7.70;80.53
62548;BME280;48602;45.192;5.722;2023-02-22T02:15:23;99251.13;;;7.68;80.78
62548;BME280;48602;45.192;5.722;2023-02-22T02:17:54;99250.34;;;7.64;81.07
62548;BME280;48602;45.192;5.722;2023-02-22T02:31:38;99247.88;;;7.58;81.51
62548;BME280;48602;45.192;5.722;2023-02-22T02:34:28;99246.16;;;7.57;81.58
62548;BME280;48602;45.192;5.722;2023-02-22T02:42:10;99227.81;;;7.56;81.84
62548;BME280;48602;45.192;5.722;2023-02-22T02:44:52;99226.06;;;7.56;81.41
62548;BME280;48602;45.192;5.722;2023-02-22T02:47:26;99227.75;;;7.59;81.18
62548;BME280;48602;45.192;5.722;2023-02-22T02:50:02;99228.56;;;7.61;81.50
62548;BME280;48602;45.192;5.722;2023-02-22T02:52:30;99225.09;;;7.60;81.40
62548;BME280;48602;45.192;5.722;2023-02-22T02:54:59;99222.38;;;7.63;81.31
62548;BME280;48602;45.192;5.722;2023-02-22T02:57:27;99228.53;;;7.62;81.47
62548;BME280;48602;45.192;5.722;2023-02-22T02:59:52;99224.97;;;7.65;81.57
62548;BME280;48602;45.192;5.722;2023-02-22T03:02:43;99233.66;;;7.67;81.34
62548;BME280;48602;45.192;5.722;2023-02-22T03:17:00;99226.81;;;7.61;81.99
62548;BME280;48602;45.192;5.722;2023-02-22T03:19:32;99229.44;;;7.61;81.76
62548;BME280;48602;45.192;5.722;2023-02-22T03:25:02;99228.59;;;7.59;82.12
62548;BME280;48602;45.192;5.722;2023-02-22T03:27:40;99226.03;;;7.58;82.10
62548;BME280;48602;45.192;5.722;2023-02-22T03:30:17;99222.53;;;7.57;81.71
62548;BME280;48602;45.192;5.722;2023-02-22T03:32:51;99222.69;;;7.53;81.80
62548;BME280;48602;45.192;5.722;2023-02-22T03:35:23;99222.75;;;7.50;81.97
62548;BME280;48602;45.192;5.722;2023-02-22T03:37:53;99227.28;;;7.43;81.93
62548;BME280;48602;45.192;5.722;2023-02-22T03:40:25;99229.16;;;7.38;82.51
62548;BME280;48602;45.192;5.722;2023-02-22T03:42:57;99228.38;;;7.36;82.52
62548;BME280;48602;45.192;5.722;2023-02-22T03:45:27;99231.94;;;7.32;82.83
62548;BME280;48602;45.192;5.722;2023-02-22T03:48:24;99239.88;;;7.29;82.85
62548;BME280;48602;45.192;5.722;2023-02-22T03:50:53;99240.81;;;7.26;83.05
62548;BME280;48602;45.192;5.722;2023-02-22T03:53:19;99234.72;;;7.26;82.35
62548;BME280;48602;45.192;5.722;2023-02-22T03:55:48;99225.13;;;7.25;80.23
62548;BME280;48602;45.192;5.722;2023-02-22T03:58:17;99228.63;;;7.25;79.66
62548;BME280;48602;45.192;5.722;2023-02-22T04:00:45;99234.69;;;7.27;78.94
62548;BME280;48602;45.192;5.722;2023-02-22T04:03:10;99232.03;;;7.29;78.53
62548;BME280;48602;45.192;5.722;2023-02-22T04:05:36;99235.47;;;7.31;78.60
62548;BME280;48602;45.192;5.722;2023-02-22T04:08:02;99238.94;;;7.33;78.28
62548;BME280;48602;45.192;5.722;2023-02-22T04:10:27;99231.88;;;7.35;78.91
62548;BME280;48602;45.192;5.722;2023-02-22T04:12:53;99237.03;;;7.38;78.43
62548;BME280;48602;45.192;5.722;2023-02-22T04:15:21;99238.72;;;7.41;78.22
62548;BME280;48602;45.192;5.722;2023-02-22T04:17:46;99236.91;;;7.43;78.42
62548;BME280;48602;45.192;5.722;2023-02-22T04:20:13;99233.34;;;7.45;78.34
62548;BME280;48602;45.192;5.722;2023-02-22T04:22:39;99233.31;;;7.47;78.23
62548;BME280;48602;45.192;5.722;2023-02-22T04:25:05;99236.72;;;7.50;78.49
62548;BME280;48602;45.192;5.722;2023-02-22T04:27:31;99232.34;;;7.51;78.47
62548;BME280;48602;45.192;5.722;2023-02-22T04:29:56;99237.53;;;7.54;78.32
62548;BME280;48602;45.192;5.722;2023-02-22T04:32:22;99240.06;;;7.55;78.32
62548;BME280;48602;45.192;5.722;2023-02-22T04:34:47;99234.78;;;7.57;78.32
62548;BME280;48602;45.192;5.722;2023-02-22T04:37:15;99233.97;;;7.55;78.49
62548;BME280;48602;45.192;5.722;2023-02-22T04:39:41;99238.34;;;7.54;78.38
62548;BME280;48602;45.192;5.722;2023-02-22T04:42:06;99240.19;;;7.52;78.77
62548;BME280;48602;45.192;5.722;2023-02-22T04:44:31;99244.63;;;7.49;79.04
62548;BME280;48602;45.192;5.722;2023-02-22T04:46:57;99245.56;;;7.46;78.78
62548;BME280;48602;45.192;5.722;2023-02-22T04:49:23;99254.34;;;7.45;79.07
62548;BME280;48602;45.192;5.722;2023-02-22T04:51:48;99243.03;;;7.43;78.90
62548;BME280;48602;45.192;5.722;2023-02-22T04:54:14;99246.59;;;7.41;79.13
62548;BME280;48602;45.192;5.722;2023-02-22T04:56:42;99252.72;;;7.40;79.24
62548;BME280;48602;45.192;5.722;2023-02-22T04:59:07;99258.84;;;7.40;78.99
62548;BME280;48602;45.192;5.722;2023-02-22T05:01:34;99254.44;;;7.41;79.20
62548;BME280;48602;45.192;5.722;2023-02-22T05:04:06;99252.72;;;7.40;79.21
62548;BME280;48602;45.192;5.722;2023-02-22T05:06:32;99246.63;;;7.39;78.86
62548;BME280;48602;45.192;5.722;2023-02-22T05:08:58;99250.13;;;7.38;79.10
62548;BME280;48602;45.192;5.722;2023-02-22T05:11:23;99250.13;;;7.38;79.04
62548;BME280;48602;45.192;5.722;2023-02-22T05:13:49;99246.66;;;7.38;79.18
62548;BME280;48602;45.192;5.722;2023-02-22T05:16:14;99252.81;;;7.37;79.19
62548;BME280;48602;45.192;5.722;2023-02-22T05:18:40;99248.44;;;7.37;78.94
62548;BME280;48602;45.192;5.722;2023-02-22T05:21:06;99249.28;;;7.38;79.08
62548;BME280;48602;45.192;5.722;2023-02-22T05:23:32;99256.22;;;7.40;79.04
62548;BME280;48602;45.192;5.722;2023-02-22T05:25:58;99251.00;;;7.39;79.07
62548;BME280;48602;45.192;5.722;2023-02-22T05:28:23;99249.25;;;7.39;78.90
62548;BME280;48602;45.192;5.722;2023-02-22T05:30:49;99243.13;;;7.39;79.18
62548;BME280;48602;45.192;5.722;2023-02-22T05:33:14;99252.75;;;7.38;79.06
62548;BME280;48602;45.192;5.722;2023-02-22T05:35:39;99235.38;;;7.35;78.94
62548;BME280;48602;45.192;5.722;2023-02-22T05:38:06;99235.34;;;7.37;79.09
62548;BME280;48602;45.192;5.722;2023-02-22T05:40:32;99237.13;;;7.35;78.92
62548;BME280;48602;45.192;5.722;2023-02-22T05:42:58;99234.50;;;7.35;79.28
62548;BME280;48602;45.192;5.722;2023-02-22T05:45:26;99232.81;;;7.32;79.21
62548;BME280;48602;45.192;5.722;2023-02-22T05:47:52;99230.22;;;7.31;79.35
62548;BME280;48602;45.192;5.722;2023-02-22T05:50:19;99229.44;;;7.27;79.32
62548;BME280;48602;45.192;5.722;2023-02-22T05:52:46;99233.06;;;7.22;79.73
62548;BME280;48602;45.192;5.722;2023-02-22T05:55:15;99229.72;;;7.17;79.78
62548;BME280;48602;45.192;5.722;2023-02-22T05:57:41;99229.81;;;7.12;79.65
62548;BME280;48602;45.192;5.722;2023-02-22T06:00:08;99236.00;;;7.10;79.99
62548;BME280;48602;45.192;5.722;2023-02-22T06:02:33;99232.69;;;7.03;79.72
62548;BME280;48602;45.192;5.722;2023-02-22T06:04:58;99238.00;;;7.00;79.75
62548;BME280;48602;45.192;5.722;2023-02-22T06:07:24;99241.50;;;6.99;79.84
62548;BME280;48602;45.192;5.722;2023-02-22T06:09:50;99237.13;;;6.99;80.16
62548;BME280;48602;45.192;5.722;2023-02-22T06:12:15;99237.09;;;7.01;80.14
62548;BME280;48602;45.192;5.722;2023-02-22T06:14:42;99243.16;;;7.03;80.15
62548;BME280;48602;45.192;5.722;2023-02-22T06:17:11;99249.31;;;7.02;80.42
62548;BME280;48602;45.192;5.722;2023-02-22T06:19:36;99246.66;;;7.04;80.30
62548;BME280;48602;45.192;5.722;2023-02-22T06:22:02;99244.84;;;7.04;80.69
62548;BME280;48602;45.192;5.722;2023-02-22T06:24:27;99245.69;;;7.06;80.94
62548;BME280;48602;45.192;5.722;2023-02-22T06:27:03;99247.41;;;7.07;80.60
62548;BME280;48602;45.192;5.722;2023-02-22T06:29:28;99250.88;;;7.09;80.74
62548;BME280;48602;45.192;5.722;2023-02-22T06:31:54;99248.25;;;7.09;80.97
62548;BME280;48602;45.192;5.722;2023-02-22T06:34:20;99256.91;;;7.13;80.91
62548;BME280;48602;45.192;5.722;2023-02-22T06:36:46;99262.97;;;7.15;80.94
62548;BME280;48602;45.192;5.722;2023-02-22T06:39:13;99259.41;;;7.17;80.90
62548;BME280;48602;45.192;5.722;2023-02-22T06:41:41;99263.72;;;7.20;80.97
62548;BME280;48602;45.192;5.722;2023-02-22T06:44:07;99273.97;;;7.29;81.09
62548;BME280;48602;45.192;5.722;2023-02-22T06:46:33;99275.47;;;7.39;81.12
62548;BME280;48602;45.192;5.722;2023-02-22T06:48:59;99280.47;;;7.50;80.42
62548;BME280;48602;45.192;5.722;2023-02-22T06:51:25;99276.81;;;7.55;80.14
62548;BME280;48602;45.192;5.722;2023-02-22T06:53:51;99281.03;;;7.61;79.95
62548;BME280;48602;45.192;5.722;2023-02-22T06:56:17;99282.63;;;7.68;79.95
62548;BME280;48602;45.192;5.722;2023-02-22T06:58:43;99284.34;;;7.69;79.72
62548;BME280;48602;45.192;5.722;2023-02-22T07:01:08;99283.44;;;7.70;79.35
62548;BME280;48602;45.192;5.722;2023-02-22T07:03:34;99290.34;;;7.72;79.39
62548;BME280;48602;45.192;5.722;2023-02-22T07:06:01;99281.56;;;7.74;79.37
62548;BME280;48602;45.192;5.722;2023-02-22T07:08:27;99289.38;;;7.77;79.25
62548;BME280;48602;45.192;5.722;2023-02-22T07:10:53;99292.72;;;7.83;79.37
62548;BME280;48602;45.192;5.722;2023-02-22T07:13:18;99298.75;;;7.87;79.23
62548;BME280;48602;45.192;5.722;2023-02-22T07:15:44;99299.53;;;7.89;78.93
62548;BME280;48602;45.192;5.722;2023-02-22T07:18:09;99305.59;;;7.92;78.87
62548;BME280;48602;45.192;5.722;2023-02-22T07:20:36;99300.25;;;7.95;79.00
62548;BME280;48602;45.192;5.722;2023-02-22T07:23:03;99308.03;;;8.00;78.75
62548;BME280;48602;45.192;5.722;2023-02-22T07:25:28;99301.84;;;8.02;78.64
62548;BME280;48602;45.192;5.722;2023-02-22T07:27:54;99306.06;;;8.06;78.36
62548;BME280;48602;45.192;5.722;2023-02-22T07:30:27;99302.47;;;8.11;78.20
62548;BME280;48602;45.192;5.722;2023-02-22T07:32:56;99314.69;;;8.12;78.17
62548;BME280;48602;45.192;5.722;2023-02-22T07:37:52;99324.09;;;8.20;78.02
62548;BME280;48602;45.192;5.722;2023-02-22T07:40:18;99316.22;;;8.20;77.61
62548;BME280;48602;45.192;5.722;2023-02-22T07:42:58;99312.63;;;8.23;77.80
62548;BME280;48602;45.192;5.722;2023-02-22T07:45:29;99306.47;;;8.24;77.56
62548;BME280;48602;45.192;5.722;2023-02-22T07:47:56;99301.19;;;8.25;77.66
62548;BME280;48602;45.192;5.722;2023-02-22T07:50:23;99296.66;;;8.30;77.60
62548;BME280;48602;45.192;5.722;2023-02-22T07:52:53;99300.81;;;8.39;77.29
62548;BME280;48602;45.192;5.722;2023-02-22T07:55:22;99306.00;;;8.42;76.98
62548;BME280;48602;45.192;5.722;2023-02-22T07:57:49;99309.41;;;8.46;77.19
62548;BME280;48602;45.192;5.722;2023-02-22T08:00:24;99303.94;;;8.53;76.92
62548;BME280;48602;45.192;5.722;2023-02-22T08:02:50;99307.97;;;8.65;77.08
62548;BME280;48602;45.192;5.722;2023-02-22T08:05:17;99305.06;;;8.74;76.76
62548;BME280;48602;45.192;5.722;2023-02-22T08:07:43;99298.63;;;8.84;76.85
62548;BME280;48602;45.192;5.722;2023-02-22T08:10:08;99301.91;;;8.91;76.43
62548;BME280;48602;45.192;5.722;2023-02-22T08:12:35;99298.28;;;8.95;76.09
62548;BME280;48602;45.192;5.722;2023-02-22T08:15:03;99306.00;;;9.01;76.07
62548;BME280;48602;45.192;5.722;2023-02-22T08:17:29;99294.53;;;9.03;75.95
62548;BME280;48602;45.192;5.722;2023-02-22T08:19:54;99293.56;;;9.06;75.71
62548;BME280;48602;45.192;5.722;2023-02-22T08:22:20;99302.22;;;9.09;75.74
62548;BME280;48602;45.192;5.722;2023-02-22T08:24:45;99307.28;;;9.16;75.57
62548;BME280;48602;45.192;5.722;2023-02-22T08:27:11;99302.03;;;9.16;75.38
62548;BME280;48602;45.192;5.722;2023-02-22T08:29:36;99305.41;;;9.21;75.50
62548;BME280;48602;45.192;5.722;2023-02-22T08:32:02;99308.72;;;9.26;74.90
62548;BME280;48602;45.192;5.722;2023-02-22T08:34:27;99309.63;;;9.25;75.06
62548;BME280;48602;45.192;5.722;2023-02-22T08:36:53;99309.53;;;9.28;74.75
62548;BME280;48602;45.192;5.722;2023-02-22T08:39:19;99312.84;;;9.34;74.88
62548;BME280;48602;45.192;5.722;2023-02-22T08:41:44;99309.31;;;9.35;74.55
62548;BME280;48602;45.192;5.722;2023-02-22T08:44:10;99316.28;;;9.36;74.72
62548;BME280;48602;45.192;5.722;2023-02-22T08:46:35;99314.44;;;9.38;74.55
62548;BME280;48602;45.192;5.722;2023-02-22T08:49:00;99313.44;;;9.42;74.60
62548;BME280;48602;45.192;5.722;2023-02-22T08:51:27;99314.16;;;9.48;74.39
62548;BME280;48602;45.192;5.722;2023-02-22T08:53:53;99326.41;;;9.49;74.23
62548;BME280;48602;45.192;5.722;2023-02-22T08:56:19;99321.91;;;9.52;74.20
62548;BME280;48602;45.192;5.722;2023-02-22T08:58:45;99320.84;;;9.58;74.15
62548;BME280;48602;45.192;5.722;2023-02-22T09:01:10;99317.28;;;9.59;74.20
62548;BME280;48602;45.192;5.722;2023-02-22T09:03:36;99317.16;;;9.63;74.14
62548;BME280;48602;45.192;5.722;2023-02-22T09:06:03;99330.16;;;9.68;73.90
62548;BME280;48602;45.192;5.722;2023-02-22T09:08:28;99319.72;;;9.65;73.40
62548;BME280;48602;45.192;5.722;2023-02-22T09:10:54;99320.72;;;9.61;73.70
62548;BME280;48602;45.192;5.722;2023-02-22T09:13:19;99329.41;;;9.64;73.66
62548;BME280;48602;45.192;5.722;2023-02-22T09:15:44;99320.50;;;9.68;73.72
62548;BME280;48602;45.192;5.722;2023-02-22T09:18:11;99319.47;;;9.72;73.86
62548;BME280;48602;45.192;5.722;2023-02-22T09:20:39;99313.94;;;9.80;73.53
62548;BME280;48602;45.192;5.722;2023-02-22T09:23:05;99307.81;;;9.79;73.15
62548;BME280;48602;45.192;5.722;2023-02-22T09:25:31;99310.41;;;9.81;73.20
62548;BME280;48602;45.192;5.722;2023-02-22T09:27:58;99305.13;;;9.81;73.04
62548;BME280;48602;45.192;5.722;2023-02-22T09:30:28;99299.00;;;9.80;73.21
62548;BME280;48602;45.192;5.722;2023-02-22T09:32:58;99306.25;;;9.74;73.02
62548;BME280;48602;45.192;5.722;2023-02-22T09:35:24;99300.88;;;9.77;73.26
62548;BME280;48602;45.192;5.722;2023-02-22T09:37:54;99301.50;;;9.85;73.02
62548;BME280;48602;45.192;5.722;2023-02-22T09:40:21;99309.06;;;9.94;73.16
62548;BME280;48602;45.192;5.722;2023-02-22T09:46:17;99308.47;;;10.11;72.81
62548;BME280;48602;45.192;5.722;2023-02-22T09:49:19;99309.25;;;10.14;72.65
62548;BME280;48602;45.192;5.722;2023-02-22T09:52:46;99303.88;;;10.18;72.48
62548;BME280;48602;45.192;5.722;2023-02-22T09:54:46;99302.06;;;10.20;72.32
62548;BME280;48602;45.192;5.722;2023-02-22T09:57:21;99303.88;;;10.18;72.44
62548;BME280;48602;45.192;5.722;2023-02-22T10:02:45;99293.13;;;10.24;72.46
62548;BME280;48602;45.192;5.722;2023-02-22T10:05:36;99303.28;;;10.34;72.52
62548;BME280;48602;45.192;5.722;2023-02-22T10:08:09;99306.75;;;10.36;72.79
62548;BME280;48602;45.192;5.722;2023-02-22T10:10:39;99297.09;;;10.35;72.69
62548;BME280;48602;45.192;5.722;2023-02-22T10:15:58;99309.13;;;10.42;72.79
62548;BME280;48602;45.192;5.722;2023-02-22T10:18:56;99295.75;;;10.48;72.56
62548;BME280;48602;45.192;5.722;2023-02-22T10:21:45;99304.34;;;10.54;72.54
62548;BME280;48602;45.192;5.722;2023-02-22T10:24:37;99291.03;;;10.57;72.12
62548;BME280;48602;45.192;5.722;2023-02-22T10:27:20;99297.84;;;10.62;72.15
62548;BME280;48602;45.192;5.722;2023-02-22T10:30:25;99301.25;;;10.66;72.59
62548;BME280;48602;45.192;5.722;2023-02-22T10:32:45;99293.03;;;10.73;71.98
62548;BME280;48602;45.192;5.722;2023-02-22T10:35:27;99301.56;;;10.80;71.98
62548;BME280;48602;45.192;5.722;2023-02-22T10:38:00;99297.91;;;10.84;71.51
62548;BME280;48602;45.192;5.722;2023-02-22T10:40:26;99296.88;;;10.88;71.63
62548;BME280;48602;45.192;5.722;2023-02-22T10:43:06;99298.47;;;10.92;71.44
62548;BME280;48602;45.192;5.722;2023-02-22T10:45:33;99296.63;;;10.94;70.95
62548;BME280;48602;45.192;5.722;2023-02-22T10:48:06;99294.91;;;10.93;70.74
62548;BME280;48602;45.192;5.722;2023-02-22T10:50:38;99295.09;;;10.89;71.06
62548;BME280;48602;45.192;5.722;2023-02-22T10:53:05;99289.19;;;10.82;70.93
62548;BME280;48602;45.192;5.722;2023-02-22T10:55:31;99288.16;;;10.86;70.89
62548;BME280;48602;45.192;5.722;2023-02-22T10:58:05;99280.19;;;10.88;70.72
62548;BME280;48602;45.192;5.722;2023-02-22T11:00:35;99286.34;;;10.88;70.87
62548;BME280;48602;45.192;5.722;2023-02-22T11:03:19;99287.97;;;10.91;70.68
62548;BME280;48602;45.192;5.722;2023-02-22T11:05:46;99277.25;;;10.95;70.52
62548;BME280;48602;45.192;5.722;2023-02-22T11:08:23;99276.16;;;11.01;70.54
62548;BME280;48602;45.192;5.722;2023-02-22T11:10:52;99278.69;;;11.04;70.33
62548;BME280;48602;45.192;5.722;2023-02-22T11:13:24;99270.56;;;11.08;70.28
62548;BME280;48602;45.192;5.722;2023-02-22T11:15:52;99265.06;;;11.14;70.29
62548;BME280;48602;45.192;5.722;2023-02-22T11:18:24;99269.16;;;11.22;70.20
62548;BME280;48602;45.192;5.722;2023-02-22T11:20:59;99271.59;;;11.26;70.26
62548;BME280;48602;45.192;5.722;2023-02-22T11:23:24;99267.06;;;11.30;70.00
62548;BME280;48602;45.192;5.722;2023-02-22T11:25:59;99262.53;;;11.33;69.69
62548;BME280;48602;45.192;5.722;2023-02-22T11:28:28;99267.94;;;11.30;69.46
62548;BME280;48602;45.192;5.722;2023-02-22T11:31:13;99258.41;;;11.26;69.83
62548;BME280;48602;45.192;5.722;2023-02-22T11:33:48;99255.06;;;11.23;69.34
62548;BME280;48602;45.192;5.722;2023-02-22T11:36:30;99256.22;;;11.15;69.49
62548;BME280;48602;45.192;5.722;2023-02-22T11:38:56;99252.03;;;11.10;69.68
62548;BME280;48602;45.192;5.722;2023-02-22T11:41:29;99246.09;;;11.05;69.80
62548;BME280;48602;45.192;5.722;2023-02-22T11:44:20;99246.09;;;11.05;69.69
62548;BME280;48602;45.192;5.722;2023-02-22T11:46:48;99240.56;;;11.11;69.59
62548;BME280;48602;45.192;5.722;2023-02-22T11:49:14;99231.84;;;11.09;69.58
62548;BME280;48602;45.192;5.722;2023-02-22T11:59:59;99216.22;;;11.46;68.78
62548;BME280;48602;45.192;5.722;2023-02-22T12:13:29;99206.63;;;11.86;67.48
62548;BME280;48602;45.192;5.722;2023-02-22T12:18:47;99196.84;;;11.88;67.46
62548;BME280;48602;45.192;5.722;2023-02-22T12:21:19;99188.19;;;11.84;67.45
62548;BME280;48602;45.192;5.722;2023-02-22T12:28:50;99184.88;;;12.00;67.39
62548;BME280;48602;45.192;5.722;2023-02-22T12:31:48;99174.91;;;12.06;67.48
62548;BME280;48602;45.192;5.722;2023-02-22T12:42:15;99163.13;;;12.32;66.79
62548;BME280;48602;45.192;5.722;2023-02-22T12:44:46;99163.59;;;12.40;66.12
62548;BME280;48602;45.192;5.722;2023-02-22T12:47:20;99167.69;;;12.47;65.80
62548;BME280;48602;45.192;5.722;2023-02-22T12:50:16;99163.75;;;12.56;65.77
62548;BME280;48602;45.192;5.722;2023-02-22T12:55:37;99160.31;;;12.73;64.91
62548;BME280;48602;45.192;5.722;2023-02-22T12:58:27;99145.75;;;12.81;65.16
62548;BME280;48602;45.192;5.722;2023-02-22T13:01:26;99155.81;;;12.92;64.94
62548;BME280;48602;45.192;5.722;2023-02-22T13:03:54;99148.38;;;13.00;64.47
62548;BME280;48602;45.192;5.722;2023-02-22T13:17:02;99150.09;;;13.01;64.09
62548;BME280;48602;45.192;5.722;2023-02-22T13:19:45;99144.78;;;13.01;63.75
62548;BME280;48602;45.192;5.722;2023-02-22T13:25:02;99144.00;;;12.99;63.92
62548;BME280;48602;45.192;5.722;2023-02-22T13:27:37;99148.22;;;13.03;63.99
62548;BME280;48602;45.192;5.722;2023-02-22T13:30:20;99138.34;;;13.07;63.71
62548;BME280;48602;45.192;5.722;2023-02-22T13:52:02;99132.63;;;13.33;63.60
62548;BME280;48602;45.192;5.722;2023-02-22T13:56:59;99125.75;;;13.46;63.27
62548;BME280;48602;45.192;5.722;2023-02-22T13:59:35;99126.28;;;13.53;63.32
62548;BME280;48602;45.192;5.722;2023-02-22T14:02:02;99117.25;;;13.57;63.06
62548;BME280;48602;45.192;5.722;2023-02-22T14:07:02;99119.34;;;13.68;63.13
62548;BME280;48602;45.192;5.722;2023-02-22T14:09:50;99123.19;;;13.78;62.75
62548;BME280;48602;45.192;5.722;2023-02-22T14:15:19;99121.59;;;13.91;62.57
62548;BME280;48602;45.192;5.722;2023-02-22T14:18:00;99113.50;;;13.94;62.38
62548;BME280;48602;45.192;5.722;2023-02-22T14:20:32;99114.28;;;13.96;62.81
62548;BME280;48602;45.192;5.722;2023-02-22T14:25:48;99109.91;;;13.95;62.43
62548;BME280;48602;45.192;5.722;2023-02-22T14:31:25;99108.28;;;13.92;62.35
62548;BME280;48602;45.192;5.722;2023-02-22T14:39:29;99117.44;;;13.87;61.96
62548;BME280;48602;45.192;5.722;2023-02-22T14:55:41;99091.69;;;13.73;62.43
62548;BME280;48602;45.192;5.722;2023-02-22T15:03:02;99097.72;;;13.75;62.26
62548;BME280;48602;45.192;5.722;2023-02-22T15:05:34;99084.38;;;13.77;62.34
62548;BME280;48602;45.192;5.722;2023-02-22T15:08:06;99087.75;;;13.80;62.30
62548;BME280;48602;45.192;5.722;2023-02-22T15:10:39;99083.91;;;13.86;62.17
62548;BME280;48602;45.192;5.722;2023-02-22T15:13:17;99080.84;;;13.93;62.08
62548;BME280;48602;45.192;5.722;2023-02-22T15:15:54;99084.88;;;14.01;62.20
62548;BME280;48602;45.192;5.722;2023-02-22T15:21:31;99071.47;;;14.04;62.22
62548;BME280;48602;45.192;5.722;2023-02-22T15:24:01;99064.28;;;14.06;62.15
62548;BME280;48602;45.192;5.722;2023-02-22T15:29:07;99068.44;;;14.10;61.82
62548;BME280;48602;45.192;5.722;2023-02-22T15:31:36;99066.84;;;14.07;61.62
62548;BME280;48602;45.192;5.722;2023-02-22T15:34:16;99061.78;;;14.03;61.56
62548;BME280;48602;45.192;5.722;2023-02-22T15:36:47;99063.81;;;13.97;61.76
62548;BME280;48602;45.192;5.722;2023-02-22T15:42:09;99061.78;;;13.87;61.96
62548;BME280;48602;45.192;5.722;2023-02-22T15:44:45;99065.53;;;13.83;61.98
62548;BME280;48602;45.192;5.722;2023-02-22T15:47:23;99060.47;;;13.78;62.07
62548;BME280;48602;45.192;5.722;2023-02-22T15:50:18;99063.47;;;13.72;62.33
62548;BME280;48602;45.192;5.722;2023-02-22T15:53:05;99061.13;;;13.66;62.31
62548;BME280;48602;45.192;5.722;2023-02-22T15:55:41;99068.47;;;13.61;62.34
62548;BME280;48602;45.192;5.722;2023-02-22T15:58:11;99069.66;;;13.55;62.43
62548;BME280;48602;45.192;5.722;2023-02-22T16:00:46;99063.66;;;13.52;62.56
62548;BME280;48602;45.192;5.722;2023-02-22T16:03:16;99067.41;;;13.48;62.92